VAM | Vabird-VBD

Virtual Vabird! Aerolínea Virtual de habla hispana, desde 2011




 INFORMACIÓN METAR y TAF
METAR FOR LSGS
ADDS - METARS form results

(1937 UTC 03 December 2020)
Data provider http://aviationweather.gov/metar/data/
 
METAR text: LSGS 031920Z AUTO 09004KT CAVOK 01/M03 Q1000
Conditions at: LSGS (SION (MIL/CIV/AU, CH) observed 1920 UTC 03 December 2020
Temperature: 1.0°C (34°F)
Dewpoint: -3.0°C (27°F) [RH = 75%]
Pressure (altimeter): 29.53 inches Hg (1000.0 mb)
Winds: from the E (90 degrees) at 5 MPH (4 knots; 2.1 m/s)
Visibility: 6 or more miles (10+ km)
Ceiling: ceiling and visibility are OK
Clouds: unknown
Weather: no significant weather observed at this time

METAR text: LSGS 031850Z AUTO 10005KT CAVOK 01/M03 Q1001
Conditions at: LSGS (SION (MIL/CIV/AU, CH) observed 1850 UTC 03 December 2020
Temperature: 1.0°C (34°F)
Dewpoint: -3.0°C (27°F) [RH = 75%]
Pressure (altimeter): 29.56 inches Hg (1001.0 mb)
Winds: from the E (100 degrees) at 6 MPH (5 knots; 2.6 m/s)
Visibility: 6 or more miles (10+ km)
Ceiling: ceiling and visibility are OK
Clouds: unknown
Weather: no significant weather observed at this time

Forecast for: LSGS (SION (MIL/CIV/AU, CH)
Text: TAF LSGS 031425Z 0315/0324 VRB03KT 9999 FEW035
Forecast period: 1500 UTC 03 December 2020 to 0000 UTC 04 December 2020
Forecast type: FROM: standard forecast or significant change
Winds: variable direction winds at 3 MPH (3 knots; 1.5 m/s)
Visibility: 6 or more miles (10+ km)
Ceiling: at least 12,000 feet AGL
Clouds: few clouds at 3500 feet AGL
Weather: no significant weather forecast for this period

 MAPA DE AEROPUERTO

 INFORMACIÓN DE PISTA